Terminal Aerodrome Forecast
Issued by NWS Tuscon, AZ

Home | Current Version | Previous Version | Text Only | Print | Product List | Glossary On
Versions: 1 2 3 4 5 6 7 8 9 10 11 12 13 14
000
FTUS45 KTWC 021740
TAFDUG
TAF
KDUG 021740Z 0218/0318 23007KT P6SM FEW250
     FM021900 27016G25KT P6SM FEW120
     FM030200 27009KT P6SM SKC
     FM030400 35007KT P6SM SKC
     FM030900 VRB04KT P6SM SKC=

USA.gov is the U.S. government's official web portal to all federal, state and local government web resources and services.